Asian Infinity — 3EVP3 — position and weather

sailwx.info

Track history (hours):
 
Tides and Currents Weather Stations Pressure Air Temp Water Temp Dewpoint Dewpoint Depression Visibility Wind Speed Wind Dir Waves Ship Positions

Asian Infinity

Last reported at 2014-Jul-29 16:27 UTC. Time now 2014-Jul-30 03:00 UTC.
Position N 33°31' E 122°55'.

Length 104 m; draft 5.4 m.

Type: Cargo ship. MMSI: 351868000.

Date/timePositionNaut miles runAvg speedWind from/ knotsBaromVisibWave heightAir tempDewpointWater temp
2014-Jul-29 16:27N 33°31' E 122°55'15311.7
2014-Jul-29 03:25N 30°59' E 122°35'8 9.4
2014-Jul-29 02:30N 31°01' E 122°25'9 8.7
2014-Jul-29 01:30N 31°02' E 122°15'19 8.9
2014-Jul-28 23:23N 31°08' E 121°54'1112.8
2014-Jul-28 22:33N 31°16' E 121°45'1211.6
2014-Jul-28 21:32N 31°23' E 121°34'4 4.1
2014-Jul-28 20:32N 31°22' E 121°30'0 0.0
2014-Jul-28 19:26N 31°22' E 121°30'0 0.0
2014-Jul-28 18:32N 31°22' E 121°30'0 0.0
2014-Jul-28 17:26N 31°22' E 121°30'0 0.0
2014-Jul-28 16:20N 31°22' E 121°30'0 0.0
2014-Jul-28 15:26N 31°22' E 121°30'0 0.0
2014-Jul-28 14:32N 31°22' E 121°30'0 0.0
2014-Jul-28 13:32N 31°22' E 121°30'0 0.0
2014-Jul-28 12:32N 31°22' E 121°30'0 0.0
2014-Jul-28 11:32N 31°22' E 121°30'0 0.0
2014-Jul-28 10:32N 31°22' E 121°30'0 0.0
2014-Jul-28 09:32N 31°22' E 121°30'0 0.0
2014-Jul-28 08:32N 31°22' E 121°30'0 0.0
2014-Jul-28 07:32N 31°22' E 121°30'0 0.0
2014-Jul-28 06:32N 31°22' E 121°30'0 0.0
2014-Jul-28 05:32N 31°22' E 121°30'0 0.0
2014-Jul-28 04:20N 31°22' E 121°30'0 0.0
2014-Jul-28 03:32N 31°22' E 121°30'0 0.0
2014-Jul-28 02:32N 31°22' E 121°30'0 0.0
2014-Jul-28 01:14N 31°22' E 121°30'0 0.0
2014-Jul-28 00:32N 31°22' E 121°30'0 0.0
2014-Jul-27 23:32N 31°22' E 121°30'0 0.0
2014-Jul-27 22:32N 31°22' E 121°30'0 0.0
2014-Jul-27 21:32N 31°22' E 121°30'0 0.0
2014-Jul-27 20:17N 31°22' E 121°30'1 1.2
2014-Jul-27 19:33N 31°23' E 121°30'6 5.8
2014-Jul-27 18:33N 31°22' E 121°37'2211.0
2014-Jul-27 16:32N 31°08' E 121°56'1111.3
2014-Jul-27 15:33N 31°03' E 122°08'10 8.4
2014-Jul-27 14:23N 31°02' E 122°20'13 2.6
2014-Jul-27 09:18N 31°03' E 122°35'1 0.2
2014-Jul-27 05:32N 31°02' E 122°36'11 9.9
2014-Jul-27 04:26N 31°01' E 122°23'3 3.6
2014-Jul-27 03:32N 31°03' E 122°20'1310.6
2014-Jul-27 02:16N 31°02' E 122°35'3 0.7
2014-Jul-26 22:24N 31°04' E 122°38'  
2014-Jul-24 14:32N 33°41' E 129°53'9 9.6
2014-Jul-24 13:33N 33°45' E 130°03'14 9.9
2014-Jul-24 12:08N 33°54' E 130°16'220 8.9
2014-Jul-23 11:22N 34°30' E 134°38'911.3
2014-Jul-23 10:33N 34°34' E 134°48'1211.9
2014-Jul-23 09:33N 34°37' E 135°03'1010.0
2014-Jul-23 08:33N 34°37' E 135°15'5 4.6
2014-Jul-23 07:30N 34°42' E 135°15'0 0.0
2014-Jul-23 06:30N 34°42' E 135°15'0 0.0
2014-Jul-23 05:30N 34°42' E 135°15'0 0.0
2014-Jul-23 04:24N 34°42' E 135°15'0 0.0
2014-Jul-23 03:30N 34°42' E 135°15'0 0.0
2014-Jul-23 02:24N 34°42' E 135°15'0 0.0
2014-Jul-23 01:24N 34°42' E 135°15'0 0.0
2014-Jul-23 00:30N 34°42' E 135°15'0 0.0
2014-Jul-22 23:30N 34°42' E 135°15'0 0.0
2014-Jul-22 22:30N 34°42' E 135°15'0 0.0
2014-Jul-22 21:30N 34°42' E 135°15'0 0.0
2014-Jul-22 20:30N 34°42' E 135°15'0 0.0
2014-Jul-22 19:24N 34°42' E 135°15'0 0.0
2014-Jul-22 18:30N 34°42' E 135°15'0 0.0
2014-Jul-22 17:30N 34°42' E 135°15'0 0.0
2014-Jul-22 16:30N 34°42' E 135°15'0 0.0
2014-Jul-22 15:30N 34°42' E 135°15'0 0.0
2014-Jul-22 14:30N 34°42' E 135°15'0 0.0
2014-Jul-22 13:30N 34°42' E 135°15'0 0.0
2014-Jul-22 12:30N 34°42' E 135°15'0 0.0
2014-Jul-22 11:30N 34°42' E 135°15'0 0.0
2014-Jul-22 10:30N 34°42' E 135°15'0 0.0
2014-Jul-22 09:30N 34°42' E 135°15'0 0.0
2014-Jul-22 08:24N 34°42' E 135°15'0 0.0
2014-Jul-22 07:30N 34°42' E 135°15'0 0.0
2014-Jul-22 06:18N 34°42' E 135°15'0 0.0
2014-Jul-22 05:33N 34°42' E 135°15'0 0.0
2014-Jul-22 04:33N 34°42' E 135°15'0 0.0
2014-Jul-22 03:27N 34°42' E 135°15'0 0.0
2014-Jul-22 02:21N 34°42' E 135°15'0 0.0
2014-Jul-22 01:33N 34°42' E 135°15'0 0.0
2014-Jul-22 00:33N 34°42' E 135°15'0 0.0
2014-Jul-21 23:33N 34°42' E 135°15'0 0.0
2014-Jul-21 22:33N 34°42' E 135°15'0 0.0
2014-Jul-21 21:33N 34°42' E 135°15'0 0.0
2014-Jul-21 20:33N 34°42' E 135°15'0 0.0
2014-Jul-21 20:15N 34°42' E 135°15'0 0.0
2014-Jul-21 19:21N 34°42' E 135°15'0 0.0
2014-Jul-21 18:33N 34°42' E 135°15'0 0.0
2014-Jul-21 17:33N 34°42' E 135°15'0 0.0
2014-Jul-21 16:33N 34°42' E 135°15'0 0.0
2014-Jul-21 15:33N 34°42' E 135°15'0 0.0
2014-Jul-21 14:33N 34°42' E 135°15'0 0.0
2014-Jul-21 13:33N 34°42' E 135°15'0 0.0
2014-Jul-21 12:33N 34°42' E 135°15'0 0.0
2014-Jul-21 11:33N 34°42' E 135°15'0 0.0
2014-Jul-21 10:27N 34°42' E 135°15'0 0.0
2014-Jul-21 09:33N 34°42' E 135°15'0 0.0
2014-Jul-21 08:27N 34°42' E 135°15'0 0.0
2014-Jul-21 07:33N 34°42' E 135°15'0 0.0
2014-Jul-21 06:33N 34°42' E 135°15'0 0.0
2014-Jul-21 05:21N 34°42' E 135°15'0 0.0
2014-Jul-21 04:33N 34°42' E 135°15'0 0.0
2014-Jul-21 03:21N 34°42' E 135°15'0 0.0
2014-Jul-21 02:33N 34°42' E 135°15'0 0.0
2014-Jul-21 01:27N 34°42' E 135°15'0 0.0
2014-Jul-21 00:21N 34°42' E 135°15'0 0.0
2014-Jul-20 23:33N 34°42' E 135°15'0 0.0
2014-Jul-20 22:33N 34°42' E 135°15'0 0.0
2014-Jul-20 21:33N 34°42' E 135°15'0 0.0
2014-Jul-20 20:33N 34°42' E 135°15'0 0.0
2014-Jul-20 19:33N 34°42' E 135°15'0 0.0
2014-Jul-20 18:33N 34°42' E 135°15'0 0.0
2014-Jul-20 17:15N 34°42' E 135°15'0 0.0
2014-Jul-20 16:33N 34°42' E 135°15'0 0.0
2014-Jul-20 15:33N 34°42' E 135°15'0 0.0
2014-Jul-20 14:33N 34°42' E 135°15'0 0.0
2014-Jul-20 13:33N 34°42' E 135°15'0 0.0
2014-Jul-20 12:33N 34°42' E 135°15'0 0.0
2014-Jul-20 11:27N 34°42' E 135°15'0 0.0
2014-Jul-20 10:33N 34°42' E 135°15'0 0.0
2014-Jul-20 09:33N 34°42' E 135°15'0 0.0
2014-Jul-20 08:33N 34°42' E 135°15'0 0.0
2014-Jul-20 07:33N 34°42' E 135°15'0 0.0
2014-Jul-20 06:33N 34°42' E 135°15'0 0.0
2014-Jul-20 05:33N 34°42' E 135°15'0 0.0
2014-Jul-20 04:33N 34°42' E 135°15'0 0.0
2014-Jul-20 03:33N 34°42' E 135°15'0 0.0
2014-Jul-20 02:33N 34°42' E 135°15'0 0.0
2014-Jul-20 01:21N 34°42' E 135°15'0 0.0
2014-Jul-20 00:33N 34°42' E 135°15'0 0.0
2014-Jul-19 23:33N 34°42' E 135°15'0 0.0
2014-Jul-19 22:33N 34°42' E 135°15'0 0.0
2014-Jul-19 21:33N 34°42' E 135°15'0 0.0
2014-Jul-19 20:21N 34°42' E 135°15'0 0.0
2014-Jul-19 19:27N 34°42' E 135°15'0 0.0
2014-Jul-19 18:33N 34°42' E 135°15'0 0.0
2014-Jul-19 17:33N 34°42' E 135°15'  
Track history (hours):
 
Tides and Currents Weather Stations Pressure Air Temp Water Temp Dewpoint Dewpoint Depression Visibility Wind Speed Wind Dir Waves Ship Positions

Asian Infinity

Last reported at 2014-Jul-29 16:27 UTC. Time now 2014-Jul-30 03:00 UTC.
Position N 33°31' E 122°55'.

Length 104 m; draft 5.4 m.

Type: Cargo ship. MMSI: 351868000.

Date/timePositionNaut miles runAvg speedWind from/ knotsBaromVisibWave heightAir tempDewpointWater temp
2014-Jul-29 16:27N 33°31' E 122°55'15311.7
2014-Jul-29 03:25N 30°59' E 122°35'8 9.4
2014-Jul-29 02:30N 31°01' E 122°25'9 8.7
2014-Jul-29 01:30N 31°02' E 122°15'19 8.9
2014-Jul-28 23:23N 31°08' E 121°54'1112.8
2014-Jul-28 22:33N 31°16' E 121°45'1211.6
2014-Jul-28 21:32N 31°23' E 121°34'4 4.1
2014-Jul-28 20:32N 31°22' E 121°30'0 0.0
2014-Jul-28 19:26N 31°22' E 121°30'0 0.0
2014-Jul-28 18:32N 31°22' E 121°30'0 0.0
2014-Jul-28 17:26N 31°22' E 121°30'0 0.0
2014-Jul-28 16:20N 31°22' E 121°30'0 0.0
2014-Jul-28 15:26N 31°22' E 121°30'0 0.0
2014-Jul-28 14:32N 31°22' E 121°30'0 0.0
2014-Jul-28 13:32N 31°22' E 121°30'0 0.0
2014-Jul-28 12:32N 31°22' E 121°30'0 0.0
2014-Jul-28 11:32N 31°22' E 121°30'0 0.0
2014-Jul-28 10:32N 31°22' E 121°30'0 0.0
2014-Jul-28 09:32N 31°22' E 121°30'0 0.0
2014-Jul-28 08:32N 31°22' E 121°30'0 0.0
2014-Jul-28 07:32N 31°22' E 121°30'0 0.0
2014-Jul-28 06:32N 31°22' E 121°30'0 0.0
2014-Jul-28 05:32N 31°22' E 121°30'0 0.0
2014-Jul-28 04:20N 31°22' E 121°30'0 0.0
2014-Jul-28 03:32N 31°22' E 121°30'0 0.0
2014-Jul-28 02:32N 31°22' E 121°30'0 0.0
2014-Jul-28 01:14N 31°22' E 121°30'0 0.0
2014-Jul-28 00:32N 31°22' E 121°30'0 0.0
2014-Jul-27 23:32N 31°22' E 121°30'0 0.0
2014-Jul-27 22:32N 31°22' E 121°30'0 0.0
2014-Jul-27 21:32N 31°22' E 121°30'0 0.0
2014-Jul-27 20:17N 31°22' E 121°30'1 1.2
2014-Jul-27 19:33N 31°23' E 121°30'6 5.8
2014-Jul-27 18:33N 31°22' E 121°37'2211.0
2014-Jul-27 16:32N 31°08' E 121°56'1111.3
2014-Jul-27 15:33N 31°03' E 122°08'10 8.4
2014-Jul-27 14:23N 31°02' E 122°20'13 2.6
2014-Jul-27 09:18N 31°03' E 122°35'1 0.2
2014-Jul-27 05:32N 31°02' E 122°36'11 9.9
2014-Jul-27 04:26N 31°01' E 122°23'3 3.6
2014-Jul-27 03:32N 31°03' E 122°20'1310.6
2014-Jul-27 02:16N 31°02' E 122°35'3 0.7
2014-Jul-26 22:24N 31°04' E 122°38'  
2014-Jul-24 14:32N 33°41' E 129°53'9 9.6
2014-Jul-24 13:33N 33°45' E 130°03'14 9.9
2014-Jul-24 12:08N 33°54' E 130°16'220 8.9
2014-Jul-23 11:22N 34°30' E 134°38'911.3
2014-Jul-23 10:33N 34°34' E 134°48'1211.9
2014-Jul-23 09:33N 34°37' E 135°03'1010.0
2014-Jul-23 08:33N 34°37' E 135°15'5 4.6
2014-Jul-23 07:30N 34°42' E 135°15'0 0.0
2014-Jul-23 06:30N 34°42' E 135°15'0 0.0
2014-Jul-23 05:30N 34°42' E 135°15'0 0.0
2014-Jul-23 04:24N 34°42' E 135°15'0 0.0
2014-Jul-23 03:30N 34°42' E 135°15'0 0.0
2014-Jul-23 02:24N 34°42' E 135°15'0 0.0
2014-Jul-23 01:24N 34°42' E 135°15'0 0.0
2014-Jul-23 00:30N 34°42' E 135°15'0 0.0
2014-Jul-22 23:30N 34°42' E 135°15'0 0.0
2014-Jul-22 22:30N 34°42' E 135°15'0 0.0
2014-Jul-22 21:30N 34°42' E 135°15'0 0.0
2014-Jul-22 20:30N 34°42' E 135°15'0 0.0
2014-Jul-22 19:24N 34°42' E 135°15'0 0.0
2014-Jul-22 18:30N 34°42' E 135°15'0 0.0
2014-Jul-22 17:30N 34°42' E 135°15'0 0.0
2014-Jul-22 16:30N 34°42' E 135°15'0 0.0
2014-Jul-22 15:30N 34°42' E 135°15'0 0.0
2014-Jul-22 14:30N 34°42' E 135°15'0 0.0
2014-Jul-22 13:30N 34°42' E 135°15'0 0.0
2014-Jul-22 12:30N 34°42' E 135°15'0 0.0
2014-Jul-22 11:30N 34°42' E 135°15'0 0.0
2014-Jul-22 10:30N 34°42' E 135°15'0 0.0
2014-Jul-22 09:30N 34°42' E 135°15'0 0.0
2014-Jul-22 08:24N 34°42' E 135°15'0 0.0
2014-Jul-22 07:30N 34°42' E 135°15'0 0.0
2014-Jul-22 06:18N 34°42' E 135°15'0 0.0
2014-Jul-22 05:33N 34°42' E 135°15'0 0.0
2014-Jul-22 04:33N 34°42' E 135°15'0 0.0
2014-Jul-22 03:27N 34°42' E 135°15'0 0.0
2014-Jul-22 02:21N 34°42' E 135°15'0 0.0
2014-Jul-22 01:33N 34°42' E 135°15'0 0.0
2014-Jul-22 00:33N 34°42' E 135°15'0 0.0
2014-Jul-21 23:33N 34°42' E 135°15'0 0.0
2014-Jul-21 22:33N 34°42' E 135°15'0 0.0
2014-Jul-21 21:33N 34°42' E 135°15'0 0.0
2014-Jul-21 20:33N 34°42' E 135°15'0 0.0
2014-Jul-21 20:15N 34°42' E 135°15'0 0.0
2014-Jul-21 19:21N 34°42' E 135°15'0 0.0
2014-Jul-21 18:33N 34°42' E 135°15'0 0.0
2014-Jul-21 17:33N 34°42' E 135°15'0 0.0
2014-Jul-21 16:33N 34°42' E 135°15'0 0.0
2014-Jul-21 15:33N 34°42' E 135°15'0 0.0
2014-Jul-21 14:33N 34°42' E 135°15'0 0.0
2014-Jul-21 13:33N 34°42' E 135°15'0 0.0
2014-Jul-21 12:33N 34°42' E 135°15'0 0.0
2014-Jul-21 11:33N 34°42' E 135°15'0 0.0
2014-Jul-21 10:27N 34°42' E 135°15'0 0.0
2014-Jul-21 09:33N 34°42' E 135°15'0 0.0
2014-Jul-21 08:27N 34°42' E 135°15'0 0.0
2014-Jul-21 07:33N 34°42' E 135°15'0 0.0
2014-Jul-21 06:33N 34°42' E 135°15'0 0.0
2014-Jul-21 05:21N 34°42' E 135°15'0 0.0
2014-Jul-21 04:33N 34°42' E 135°15'0 0.0
2014-Jul-21 03:21N 34°42' E 135°15'0 0.0
2014-Jul-21 02:33N 34°42' E 135°15'0 0.0
2014-Jul-21 01:27N 34°42' E 135°15'0 0.0
2014-Jul-21 00:21N 34°42' E 135°15'0 0.0
2014-Jul-20 23:33N 34°42' E 135°15'0 0.0
2014-Jul-20 22:33N 34°42' E 135°15'0 0.0
2014-Jul-20 21:33N 34°42' E 135°15'0 0.0
2014-Jul-20 20:33N 34°42' E 135°15'0 0.0
2014-Jul-20 19:33N 34°42' E 135°15'0 0.0
2014-Jul-20 18:33N 34°42' E 135°15'0 0.0
2014-Jul-20 17:15N 34°42' E 135°15'0 0.0
2014-Jul-20 16:33N 34°42' E 135°15'0 0.0
2014-Jul-20 15:33N 34°42' E 135°15'0 0.0
2014-Jul-20 14:33N 34°42' E 135°15'0 0.0
2014-Jul-20 13:33N 34°42' E 135°15'0 0.0
2014-Jul-20 12:33N 34°42' E 135°15'0 0.0
2014-Jul-20 11:27N 34°42' E 135°15'0 0.0
2014-Jul-20 10:33N 34°42' E 135°15'0 0.0
2014-Jul-20 09:33N 34°42' E 135°15'0 0.0
2014-Jul-20 08:33N 34°42' E 135°15'0 0.0
2014-Jul-20 07:33N 34°42' E 135°15'0 0.0
2014-Jul-20 06:33N 34°42' E 135°15'0 0.0
2014-Jul-20 05:33N 34°42' E 135°15'0 0.0
2014-Jul-20 04:33N 34°42' E 135°15'0 0.0
2014-Jul-20 03:33N 34°42' E 135°15'0 0.0
2014-Jul-20 02:33N 34°42' E 135°15'0 0.0
2014-Jul-20 01:21N 34°42' E 135°15'0 0.0
2014-Jul-20 00:33N 34°42' E 135°15'0 0.0
2014-Jul-19 23:33N 34°42' E 135°15'0 0.0
2014-Jul-19 22:33N 34°42' E 135°15'0 0.0
2014-Jul-19 21:33N 34°42' E 135°15'0 0.0
2014-Jul-19 20:21N 34°42' E 135°15'0 0.0
2014-Jul-19 19:27N 34°42' E 135°15'0 0.0
2014-Jul-19 18:33N 34°42' E 135°15'0 0.0
2014-Jul-19 17:33N 34°42' E 135°15'  

Dump ship's entire track history